createdAt,value
2018-08-17T08:47:27.170Z,16.90
2018-08-17T08:50:30.264Z,14.43
2018-08-17T08:53:33.359Z,15.17
2018-08-17T08:56:36.456Z,14.13
2018-08-17T08:59:39.544Z,13.13
2018-08-17T09:02:42.593Z,15.40
2018-08-17T09:05:45.687Z,15.90
2018-08-17T09:08:48.750Z,15.10
2018-08-17T09:11:51.838Z,15.77
2018-08-17T09:14:54.914Z,15.07
2018-08-17T09:17:57.999Z,15.97
2018-08-17T09:21:01.172Z,13.97
2018-08-17T09:24:04.269Z,14.90
2018-08-17T09:27:07.438Z,13.50
2018-08-17T09:30:12.015Z,15.40
2018-08-17T09:33:15.038Z,13.13
2018-08-17T09:36:18.136Z,13.53
2018-08-17T09:39:21.238Z,13.73
2018-08-17T09:42:24.320Z,12.93
2018-08-17T09:45:27.441Z,14.70
2018-08-17T09:48:30.497Z,13.07
2018-08-17T09:51:36.269Z,13.43
2018-08-17T09:54:39.355Z,11.63
2018-08-17T09:57:42.592Z,11.53
2018-08-17T10:00:50.944Z,12.37
2018-08-17T10:03:59.580Z,11.90
2018-08-17T10:07:08.036Z,13.73
2018-08-17T10:10:16.410Z,12.93
2018-08-17T10:13:19.481Z,14.90
2018-08-17T10:16:22.556Z,14.20
2018-08-17T10:19:25.656Z,12.37
2018-08-17T10:22:28.745Z,14.30
2018-08-17T10:25:31.833Z,13.97
2018-08-17T10:28:34.914Z,13.07
2018-08-17T10:31:37.994Z,13.63
2018-08-17T10:34:41.087Z,14.43
2018-08-17T10:37:44.157Z,13.53
2018-08-17T10:40:47.319Z,12.73
2018-08-17T10:43:50.357Z,12.10
2018-08-17T10:46:53.437Z,13.70
2018-08-17T10:49:56.678Z,13.20
2018-08-17T10:53:01.074Z,13.10
2018-08-17T10:56:04.569Z,12.37
2018-08-17T10:59:07.771Z,11.97
2018-08-17T11:02:11.050Z,13.47
2018-08-17T11:05:15.637Z,11.73
2018-08-17T11:08:18.924Z,14.13
2018-08-17T11:11:22.236Z,13.40
2018-08-17T11:14:25.476Z,15.03
2018-08-17T11:17:28.818Z,14.33
2018-08-17T11:20:32.142Z,12.23
2018-08-17T11:23:35.334Z,12.43
2018-08-17T11:26:38.556Z,11.10
2018-08-17T11:29:41.815Z,9.20
2018-08-17T11:32:45.059Z,9.67
2018-08-17T11:35:48.306Z,9.47
2018-08-17T11:38:51.599Z,9.77
2018-08-17T11:41:54.927Z,11.60
2018-08-17T11:44:58.067Z,15.60
2018-08-17T11:48:01.494Z,10.27
2018-08-17T11:51:04.797Z,9.43
2018-08-17T11:54:10.142Z,10.23
2018-08-17T11:57:13.362Z,10.83
2018-08-17T12:00:16.698Z,11.40
2018-08-17T12:03:19.916Z,13.27
2018-08-17T12:06:23.154Z,10.63
2018-08-17T12:09:26.518Z,10.07
2018-08-17T12:12:30.569Z,10.27
2018-08-17T12:15:37.121Z,9.80
2018-08-17T12:18:40.413Z,9.40
2018-08-17T12:21:43.689Z,9.53
2018-08-17T12:24:46.956Z,12.00
2018-08-17T12:27:58.083Z,8.97
2018-08-17T12:31:01.192Z,12.10
2018-08-17T12:34:04.250Z,8.77
2018-08-17T12:37:07.389Z,8.13
2018-08-17T12:40:10.567Z,9.43
2018-08-17T12:43:14.649Z,8.60
2018-08-17T12:46:17.727Z,10.93
2018-08-17T12:49:20.830Z,8.43
2018-08-17T12:52:24.001Z,9.37
2018-08-17T12:55:27.009Z,8.20
2018-08-17T12:58:30.104Z,9.03
2018-08-17T13:01:33.205Z,8.47
2018-08-17T13:04:36.290Z,8.43
2018-08-17T13:07:39.437Z,8.07
2018-08-17T13:10:42.534Z,10.63
2018-08-17T13:13:45.554Z,7.73
2018-08-17T13:16:48.640Z,8.17
2018-08-17T13:19:51.714Z,7.20
2018-08-17T13:22:54.856Z,8.00
2018-08-17T13:25:57.852Z,7.30
2018-08-17T13:29:01.147Z,7.33
2018-08-17T13:32:04.221Z,7.80
2018-08-17T13:35:07.312Z,7.27
2018-08-17T13:38:10.383Z,6.87
2018-08-17T13:41:13.429Z,8.00
2018-08-17T13:44:16.542Z,8.00
2018-08-17T13:47:19.613Z,6.87
2018-08-17T13:50:22.681Z,9.07
2018-08-17T13:53:25.793Z,6.70
2018-08-17T13:56:28.894Z,6.30
2018-08-17T13:59:31.976Z,7.47
2018-08-17T14:02:35.094Z,7.10
2018-08-17T14:05:38.165Z,10.43
2018-08-17T14:08:41.267Z,7.00
2018-08-17T14:11:44.373Z,7.23
2018-08-17T14:14:47.449Z,7.20
2018-08-17T14:17:50.594Z,6.90
2018-08-17T14:20:53.657Z,6.80
2018-08-17T14:23:56.744Z,6.50
2018-08-17T14:26:59.827Z,7.40
2018-08-17T14:30:03.016Z,12.03
2018-08-17T14:33:06.290Z,8.13
2018-08-17T14:36:16.079Z,8.03
2018-08-17T14:39:19.522Z,7.30
2018-08-17T14:42:22.703Z,10.67
2018-08-17T14:45:25.916Z,7.40
2018-08-17T14:48:29.366Z,6.47
2018-08-17T14:51:32.609Z,7.17
2018-08-17T14:54:35.766Z,6.03
2018-08-17T14:57:39.000Z,6.23
2018-08-17T15:00:42.366Z,7.60
2018-08-17T15:03:45.588Z,8.50
2018-08-17T15:06:48.790Z,6.50
2018-08-17T15:09:52.094Z,6.83
2018-08-17T15:12:55.444Z,6.03
2018-08-17T15:15:58.703Z,4.80
2018-08-17T15:19:02.006Z,5.07
2018-08-17T15:22:05.195Z,4.97
2018-08-17T15:25:08.480Z,5.00
2018-08-17T15:28:11.724Z,6.20
2018-08-17T15:31:15.042Z,7.73
2018-08-17T15:34:18.302Z,4.67
2018-08-17T15:37:21.494Z,6.90
2018-08-17T15:40:24.666Z,6.17
2018-08-17T15:43:34.210Z,6.90
2018-08-17T15:46:37.443Z,4.90
2018-08-17T15:49:41.627Z,5.70
2018-08-17T15:52:45.079Z,6.27
2018-08-17T15:55:48.386Z,4.97
2018-08-17T15:58:51.685Z,5.43
2018-08-17T16:01:54.917Z,5.77
2018-08-17T16:04:58.125Z,5.63
2018-08-17T16:08:01.522Z,7.97
2018-08-17T16:11:04.776Z,7.43
2018-08-17T16:14:08.081Z,6.50
2018-08-17T16:17:11.218Z,6.57
2018-08-17T16:20:14.519Z,7.73
2018-08-17T16:23:17.752Z,7.83
2018-08-17T16:26:21.030Z,6.70
2018-08-17T16:29:24.423Z,7.03
2018-08-17T16:32:27.713Z,7.67
2018-08-17T16:35:30.982Z,7.07
2018-08-17T16:38:36.762Z,8.07
2018-08-17T16:41:40.046Z,8.47
2018-08-17T16:44:43.336Z,8.87
2018-08-17T16:47:46.578Z,7.13
2018-08-17T16:50:49.770Z,8.90
2018-08-17T16:53:53.047Z,7.60
2018-08-17T16:56:56.371Z,7.20
2018-08-17T17:00:00.554Z,7.33
2018-08-17T17:03:03.869Z,9.43
2018-08-17T17:06:07.112Z,6.60
2018-08-17T17:09:10.458Z,6.70
2018-08-17T17:12:21.090Z,7.60
2018-08-17T17:15:24.313Z,6.33
2018-08-17T17:18:33.634Z,6.60
2018-08-17T17:21:36.930Z,6.73
2018-08-17T17:24:40.205Z,6.90
2018-08-17T17:27:43.457Z,7.00
2018-08-17T17:30:53.617Z,8.00
2018-08-17T17:33:56.867Z,9.93
2018-08-17T17:37:00.370Z,7.73
2018-08-17T17:40:03.875Z,6.53
2018-08-17T17:43:07.478Z,6.80
2018-08-17T17:46:10.725Z,9.87
2018-08-17T17:49:14.114Z,9.37
2018-08-17T17:52:17.377Z,6.50
2018-08-17T17:55:20.574Z,6.77
2018-08-17T17:58:23.819Z,6.50
2018-08-17T18:01:27.002Z,7.93
2018-08-17T18:04:31.405Z,6.77
2018-08-17T18:07:49.900Z,6.73
2018-08-17T18:10:53.193Z,5.70
2018-08-17T18:13:56.413Z,8.23
2018-08-17T18:17:02.870Z,7.27
2018-08-17T18:20:06.027Z,5.73
2018-08-17T18:23:09.334Z,6.37
2018-08-17T18:26:16.942Z,5.30
2018-08-17T18:29:20.318Z,7.10
2018-08-17T18:32:23.570Z,5.50
2018-08-17T18:35:26.778Z,5.30
2018-08-17T18:38:29.998Z,5.40
2018-08-17T18:41:33.250Z,5.23
2018-08-17T18:44:36.545Z,5.17
2018-08-17T18:47:39.814Z,6.13
2018-08-17T18:50:43.067Z,7.47
2018-08-17T18:53:46.365Z,5.90
2018-08-17T18:56:49.785Z,8.47
2018-08-17T18:59:53.107Z,8.23
2018-08-17T19:02:57.266Z,4.80
2018-08-17T19:06:00.466Z,6.63
2018-08-17T19:09:04.422Z,4.43
2018-08-17T19:12:07.626Z,8.93
2018-08-17T19:15:13.238Z,7.83
2018-08-17T19:18:16.307Z,4.97
2018-08-17T19:21:19.369Z,5.53
2018-08-17T19:24:22.413Z,6.20
2018-08-17T19:27:33.984Z,11.00
2018-08-17T19:30:37.058Z,7.00
2018-08-17T19:33:40.122Z,5.67
2018-08-17T19:36:43.228Z,4.20
2018-08-17T19:39:47.137Z,3.40
2018-08-17T19:42:50.232Z,9.23
2018-08-17T19:45:53.395Z,5.03
2018-08-17T19:48:56.458Z,3.73
2018-08-17T19:51:59.522Z,4.07
2018-08-17T19:55:02.561Z,4.23
2018-08-17T19:58:05.858Z,5.10
2018-08-17T20:01:08.934Z,3.33
2018-08-17T20:04:12.017Z,8.30
2018-08-17T20:07:15.092Z,5.90
2018-08-17T20:10:18.165Z,4.87
2018-08-17T20:13:21.269Z,4.80
2018-08-17T20:16:28.381Z,3.90
2018-08-17T20:19:36.865Z,6.53
2018-08-17T20:22:39.961Z,13.07
2018-08-17T20:25:43.052Z,4.20
2018-08-17T20:28:52.701Z,6.13
2018-08-17T20:31:55.793Z,4.90
2018-08-17T20:34:58.851Z,8.13
2018-08-17T20:41:34.069Z,6.90
2018-08-17T20:44:37.184Z,7.07
2018-08-17T20:47:41.160Z,5.87
2018-08-17T20:50:44.228Z,5.23
2018-08-17T20:53:47.990Z,4.73
2018-08-17T20:56:51.087Z,6.07
2018-08-17T20:59:54.154Z,6.97
2018-08-17T21:02:57.252Z,6.23
2018-08-17T21:06:00.366Z,6.97
2018-08-17T21:09:04.513Z,6.23
2018-08-17T21:12:07.598Z,6.47
2018-08-17T21:15:10.673Z,6.77
2018-08-17T21:18:13.739Z,7.17
2018-08-17T21:21:16.817Z,8.67
2018-08-17T21:24:19.877Z,7.40
2018-08-17T21:27:22.956Z,7.57
2018-08-17T21:30:26.044Z,6.63
2018-08-17T21:33:29.106Z,6.97
2018-08-17T21:36:32.169Z,7.83
2018-08-17T21:39:35.265Z,6.47
2018-08-17T21:42:38.384Z,6.60
2018-08-17T21:45:44.625Z,7.00
2018-08-17T21:48:47.709Z,8.40
2018-08-17T21:51:55.705Z,7.10
2018-08-17T21:54:58.775Z,7.70
2018-08-17T21:58:01.853Z,7.10
2018-08-17T22:01:04.921Z,6.40
2018-08-17T22:04:08.027Z,6.73
2018-08-17T22:07:28.808Z,7.20
2018-08-17T22:10:31.887Z,6.60
2018-08-17T22:13:35.921Z,7.63
2018-08-17T22:16:39.006Z,7.10
2018-08-17T22:19:42.981Z,6.77
2018-08-17T22:22:46.045Z,7.10
2018-08-17T22:25:49.125Z,6.83
2018-08-17T22:28:52.234Z,6.33
2018-08-17T22:31:55.336Z,7.57
2018-08-17T22:34:58.421Z,7.10
2018-08-17T22:38:01.519Z,12.13
2018-08-17T22:41:04.610Z,7.63
2018-08-17T22:44:11.942Z,6.90
2018-08-17T22:47:16.836Z,6.03
2018-08-17T22:50:19.908Z,6.50
2018-08-17T22:53:22.980Z,6.40
2018-08-17T22:56:27.270Z,6.17
2018-08-17T22:59:30.349Z,6.30
2018-08-17T23:02:33.448Z,6.17
2018-08-17T23:05:36.666Z,5.80
2018-08-17T23:08:39.757Z,6.50
2018-08-17T23:11:42.845Z,5.50
2018-08-17T23:14:45.984Z,6.23
2018-08-17T23:17:54.404Z,5.20
2018-08-17T23:20:57.488Z,7.23
2018-08-17T23:24:00.658Z,6.30
2018-08-17T23:27:03.660Z,6.20
2018-08-17T23:30:07.053Z,6.33
2018-08-17T23:33:10.324Z,5.37
2018-08-17T23:36:13.401Z,6.57
2018-08-17T23:39:16.497Z,6.13
2018-08-17T23:42:19.565Z,6.00
2018-08-17T23:45:22.636Z,6.33
2018-08-17T23:48:25.732Z,5.57
2018-08-17T23:51:28.809Z,12.17
2018-08-17T23:54:31.923Z,6.23
2018-08-17T23:57:35.109Z,5.93
